sensor_id;sensor_type;location;lat;lon;timestamp;P1;durP1;ratioP1;P2;durP2;ratioP2
59052;SDS011;44843;44.728;10.396;2023-12-29T00:02:15;57.95;;;31.23;;
59052;SDS011;44843;44.728;10.396;2023-12-29T00:04:40;59.08;;;28.92;;
59052;SDS011;44843;44.728;10.396;2023-12-29T00:07:07;55.53;;;29.17;;
59052;SDS011;44843;44.728;10.396;2023-12-29T00:09:32;54.60;;;29.80;;
59052;SDS011;44843;44.728;10.396;2023-12-29T00:12:03;56.15;;;29.10;;
59052;SDS011;44843;44.728;10.396;2023-12-29T00:14:29;52.55;;;28.95;;
59052;SDS011;44843;44.728;10.396;2023-12-29T00:16:54;57.05;;;29.85;;
59052;SDS011;44843;44.728;10.396;2023-12-29T00:19:22;55.08;;;28.55;;
59052;SDS011;44843;44.728;10.396;2023-12-29T00:21:47;51.35;;;27.55;;
59052;SDS011;44843;44.728;10.396;2023-12-29T00:24:12;56.90;;;28.10;;
59052;SDS011;44843;44.728;10.396;2023-12-29T00:26:38;49.40;;;27.80;;
59052;SDS011;44843;44.728;10.396;2023-12-29T00:29:03;51.45;;;27.42;;
59052;SDS011;44843;44.728;10.396;2023-12-29T00:31:30;52.25;;;27.90;;
59052;SDS011;44843;44.728;10.396;2023-12-29T00:33:56;49.58;;;28.20;;
59052;SDS011;44843;44.728;10.396;2023-12-29T00:36:21;46.28;;;26.80;;
59052;SDS011;44843;44.728;10.396;2023-12-29T00:38:46;51.30;;;27.92;;
59052;SDS011;44843;44.728;10.396;2023-12-29T00:41:12;51.38;;;27.08;;
59052;SDS011;44843;44.728;10.396;2023-12-29T00:43:37;51.83;;;27.45;;
59052;SDS011;44843;44.728;10.396;2023-12-29T00:46:03;47.90;;;25.65;;
59052;SDS011;44843;44.728;10.396;2023-12-29T00:48:28;56.28;;;27.52;;
59052;SDS011;44843;44.728;10.396;2023-12-29T00:50:53;51.33;;;26.58;;
59052;SDS011;44843;44.728;10.396;2023-12-29T00:53:19;56.38;;;27.08;;
59052;SDS011;44843;44.728;10.396;2023-12-29T00:55:44;54.85;;;29.42;;
59052;SDS011;44843;44.728;10.396;2023-12-29T00:58:09;52.63;;;26.70;;
59052;SDS011;44843;44.728;10.396;2023-12-29T01:00:34;51.95;;;28.67;;
59052;SDS011;44843;44.728;10.396;2023-12-29T01:02:59;46.90;;;26.85;;
59052;SDS011;44843;44.728;10.396;2023-12-29T01:05:25;44.40;;;25.30;;
59052;SDS011;44843;44.728;10.396;2023-12-29T01:07:50;47.20;;;25.98;;
59052;SDS011;44843;44.728;10.396;2023-12-29T01:10:15;49.67;;;25.85;;
59052;SDS011;44843;44.728;10.396;2023-12-29T01:12:40;56.63;;;27.65;;
59052;SDS011;44843;44.728;10.396;2023-12-29T01:15:06;51.17;;;26.60;;
59052;SDS011;44843;44.728;10.396;2023-12-29T01:17:31;50.15;;;26.80;;
59052;SDS011;44843;44.728;10.396;2023-12-29T01:19:56;46.90;;;25.38;;
59052;SDS011;44843;44.728;10.396;2023-12-29T01:22:22;49.88;;;26.63;;
59052;SDS011;44843;44.728;10.396;2023-12-29T01:24:47;53.50;;;26.70;;
59052;SDS011;44843;44.728;10.396;2023-12-29T01:27:13;49.42;;;25.85;;
59052;SDS011;44843;44.728;10.396;2023-12-29T01:29:38;45.38;;;25.88;;
59052;SDS011;44843;44.728;10.396;2023-12-29T01:32:03;46.47;;;26.52;;
59052;SDS011;44843;44.728;10.396;2023-12-29T01:34:31;46.22;;;26.33;;
59052;SDS011;44843;44.728;10.396;2023-12-29T01:36:58;54.60;;;27.60;;
59052;SDS011;44843;44.728;10.396;2023-12-29T01:39:24;51.58;;;25.27;;
59052;SDS011;44843;44.728;10.396;2023-12-29T01:41:49;52.95;;;27.60;;
59052;SDS011;44843;44.728;10.396;2023-12-29T01:44:17;46.67;;;24.85;;
59052;SDS011;44843;44.728;10.396;2023-12-29T01:46:43;50.92;;;26.48;;
59052;SDS011;44843;44.728;10.396;2023-12-29T01:49:08;50.72;;;26.80;;
59052;SDS011;44843;44.728;10.396;2023-12-29T01:51:34;54.65;;;27.58;;
59052;SDS011;44843;44.728;10.396;2023-12-29T01:53:59;47.13;;;24.58;;
59052;SDS011;44843;44.728;10.396;2023-12-29T01:56:25;48.85;;;25.30;;
59052;SDS011;44843;44.728;10.396;2023-12-29T01:58:50;49.58;;;25.90;;
59052;SDS011;44843;44.728;10.396;2023-12-29T02:01:16;52.28;;;26.80;;
59052;SDS011;44843;44.728;10.396;2023-12-29T02:03:43;48.65;;;25.23;;
59052;SDS011;44843;44.728;10.396;2023-12-29T02:06:08;53.47;;;25.52;;
59052;SDS011;44843;44.728;10.396;2023-12-29T02:08:34;49.42;;;25.40;;
59052;SDS011;44843;44.728;10.396;2023-12-29T02:11:00;48.65;;;25.65;;
59052;SDS011;44843;44.728;10.396;2023-12-29T02:13:25;46.38;;;26.48;;
59052;SDS011;44843;44.728;10.396;2023-12-29T02:15:51;51.15;;;26.50;;
59052;SDS011;44843;44.728;10.396;2023-12-29T02:18:17;44.38;;;24.92;;
59052;SDS011;44843;44.728;10.396;2023-12-29T02:20:43;49.28;;;25.58;;
59052;SDS011;44843;44.728;10.396;2023-12-29T02:23:09;46.40;;;25.58;;
59052;SDS011;44843;44.728;10.396;2023-12-29T02:25:35;47.15;;;25.92;;
59052;SDS011;44843;44.728;10.396;2023-12-29T02:32:59;48.95;;;26.58;;
59052;SDS011;44843;44.728;10.396;2023-12-29T02:35:26;50.10;;;26.35;;
59052;SDS011;44843;44.728;10.396;2023-12-29T02:37:53;48.15;;;25.38;;
59052;SDS011;44843;44.728;10.396;2023-12-29T02:40:18;59.00;;;26.98;;
59052;SDS011;44843;44.728;10.396;2023-12-29T02:42:44;51.50;;;26.55;;
59052;SDS011;44843;44.728;10.396;2023-12-29T02:45:10;53.15;;;27.08;;
59052;SDS011;44843;44.728;10.396;2023-12-29T02:47:36;53.92;;;26.55;;
59052;SDS011;44843;44.728;10.396;2023-12-29T02:50:01;51.90;;;27.25;;
59052;SDS011;44843;44.728;10.396;2023-12-29T02:52:26;51.97;;;27.35;;
59052;SDS011;44843;44.728;10.396;2023-12-29T02:54:51;49.75;;;26.55;;
59052;SDS011;44843;44.728;10.396;2023-12-29T02:57:16;47.45;;;25.98;;
59052;SDS011;44843;44.728;10.396;2023-12-29T02:59:42;54.08;;;26.60;;
59052;SDS011;44843;44.728;10.396;2023-12-29T03:02:07;58.58;;;29.52;;
59052;SDS011;44843;44.728;10.396;2023-12-29T03:04:32;53.30;;;26.70;;
59052;SDS011;44843;44.728;10.396;2023-12-29T03:06:57;59.15;;;29.63;;
59052;SDS011;44843;44.728;10.396;2023-12-29T03:09:23;48.92;;;27.33;;
59052;SDS011;44843;44.728;10.396;2023-12-29T03:11:48;56.25;;;26.77;;
59052;SDS011;44843;44.728;10.396;2023-12-29T03:14:14;51.05;;;26.95;;
59052;SDS011;44843;44.728;10.396;2023-12-29T03:16:40;56.17;;;28.45;;
59052;SDS011;44843;44.728;10.396;2023-12-29T03:19:05;53.10;;;27.60;;
59052;SDS011;44843;44.728;10.396;2023-12-29T03:21:30;57.10;;;28.17;;
59052;SDS011;44843;44.728;10.396;2023-12-29T03:23:55;55.42;;;27.58;;
59052;SDS011;44843;44.728;10.396;2023-12-29T03:26:20;52.35;;;26.95;;
59052;SDS011;44843;44.728;10.396;2023-12-29T03:28:46;56.75;;;28.15;;
59052;SDS011;44843;44.728;10.396;2023-12-29T03:31:11;51.55;;;27.70;;
59052;SDS011;44843;44.728;10.396;2023-12-29T03:33:36;53.85;;;28.92;;
59052;SDS011;44843;44.728;10.396;2023-12-29T03:36:01;50.58;;;26.23;;
59052;SDS011;44843;44.728;10.396;2023-12-29T03:38:27;60.70;;;29.38;;
59052;SDS011;44843;44.728;10.396;2023-12-29T03:40:52;63.33;;;28.15;;
59052;SDS011;44843;44.728;10.396;2023-12-29T03:43:17;60.15;;;29.33;;
59052;SDS011;44843;44.728;10.396;2023-12-29T03:45:42;55.70;;;28.13;;
59052;SDS011;44843;44.728;10.396;2023-12-29T03:48:08;51.40;;;28.83;;
59052;SDS011;44843;44.728;10.396;2023-12-29T03:50:33;54.90;;;29.40;;
59052;SDS011;44843;44.728;10.396;2023-12-29T03:52:59;58.55;;;29.38;;
59052;SDS011;44843;44.728;10.396;2023-12-29T03:55:24;50.60;;;27.00;;
59052;SDS011;44843;44.728;10.396;2023-12-29T03:57:49;54.47;;;29.02;;
59052;SDS011;44843;44.728;10.396;2023-12-29T04:00:14;57.38;;;30.27;;
59052;SDS011;44843;44.728;10.396;2023-12-29T04:02:40;58.50;;;29.77;;
59052;SDS011;44843;44.728;10.396;2023-12-29T04:05:08;55.17;;;28.85;;
59052;SDS011;44843;44.728;10.396;2023-12-29T04:07:34;48.58;;;27.90;;
59052;SDS011;44843;44.728;10.396;2023-12-29T04:09:59;60.63;;;29.75;;
59052;SDS011;44843;44.728;10.396;2023-12-29T04:12:24;57.80;;;28.83;;
59052;SDS011;44843;44.728;10.396;2023-12-29T04:14:49;55.78;;;27.25;;
59052;SDS011;44843;44.728;10.396;2023-12-29T04:17:14;50.78;;;27.58;;
59052;SDS011;44843;44.728;10.396;2023-12-29T04:19:40;50.80;;;27.27;;
59052;SDS011;44843;44.728;10.396;2023-12-29T04:22:06;50.97;;;25.83;;
59052;SDS011;44843;44.728;10.396;2023-12-29T04:24:31;55.15;;;28.20;;
59052;SDS011;44843;44.728;10.396;2023-12-29T04:26:56;51.20;;;26.88;;
59052;SDS011;44843;44.728;10.396;2023-12-29T04:29:22;56.92;;;26.80;;
59052;SDS011;44843;44.728;10.396;2023-12-29T04:31:47;56.00;;;28.63;;
59052;SDS011;44843;44.728;10.396;2023-12-29T04:34:12;53.50;;;26.30;;
59052;SDS011;44843;44.728;10.396;2023-12-29T04:36:38;54.58;;;27.55;;
59052;SDS011;44843;44.728;10.396;2023-12-29T04:39:03;48.70;;;26.27;;
59052;SDS011;44843;44.728;10.396;2023-12-29T04:41:28;54.75;;;27.73;;
59052;SDS011;44843;44.728;10.396;2023-12-29T04:43:53;52.67;;;27.40;;
59052;SDS011;44843;44.728;10.396;2023-12-29T04:46:18;53.35;;;27.65;;
59052;SDS011;44843;44.728;10.396;2023-12-29T04:48:44;50.13;;;26.23;;
59052;SDS011;44843;44.728;10.396;2023-12-29T04:51:09;49.80;;;25.08;;
59052;SDS011;44843;44.728;10.396;2023-12-29T04:53:34;47.70;;;25.48;;
59052;SDS011;44843;44.728;10.396;2023-12-29T04:55:59;58.53;;;27.35;;
59052;SDS011;44843;44.728;10.396;2023-12-29T04:58:25;46.05;;;25.45;;
59052;SDS011;44843;44.728;10.396;2023-12-29T05:00:50;44.67;;;23.77;;
59052;SDS011;44843;44.728;10.396;2023-12-29T05:03:15;43.70;;;23.48;;
59052;SDS011;44843;44.728;10.396;2023-12-29T05:05:40;45.17;;;24.42;;
59052;SDS011;44843;44.728;10.396;2023-12-29T05:08:06;44.10;;;23.17;;
59052;SDS011;44843;44.728;10.396;2023-12-29T05:10:31;45.78;;;24.10;;
59052;SDS011;44843;44.728;10.396;2023-12-29T05:12:59;45.25;;;22.35;;
59052;SDS011;44843;44.728;10.396;2023-12-29T05:15:24;48.47;;;23.52;;
59052;SDS011;44843;44.728;10.396;2023-12-29T05:17:50;39.38;;;22.20;;
59052;SDS011;44843;44.728;10.396;2023-12-29T05:20:15;38.08;;;22.20;;
59052;SDS011;44843;44.728;10.396;2023-12-29T05:22:40;41.85;;;22.13;;
59052;SDS011;44843;44.728;10.396;2023-12-29T05:25:05;41.10;;;21.30;;
59052;SDS011;44843;44.728;10.396;2023-12-29T05:27:31;40.40;;;21.65;;
59052;SDS011;44843;44.728;10.396;2023-12-29T05:29:56;39.60;;;20.85;;
59052;SDS011;44843;44.728;10.396;2023-12-29T05:32:22;41.10;;;21.25;;
59052;SDS011;44843;44.728;10.396;2023-12-29T05:34:47;37.97;;;20.50;;
59052;SDS011;44843;44.728;10.396;2023-12-29T05:37:12;33.95;;;19.20;;
59052;SDS011;44843;44.728;10.396;2023-12-29T05:39:37;39.95;;;20.02;;
59052;SDS011;44843;44.728;10.396;2023-12-29T05:42:03;32.22;;;19.15;;
59052;SDS011;44843;44.728;10.396;2023-12-29T05:44:28;34.47;;;17.70;;
59052;SDS011;44843;44.728;10.396;2023-12-29T05:46:53;34.95;;;18.77;;
59052;SDS011;44843;44.728;10.396;2023-12-29T05:49:23;36.15;;;17.92;;
59052;SDS011;44843;44.728;10.396;2023-12-29T05:51:48;33.60;;;16.90;;
59052;SDS011;44843;44.728;10.396;2023-12-29T05:54:14;31.85;;;16.50;;
59052;SDS011;44843;44.728;10.396;2023-12-29T05:56:39;30.33;;;17.10;;
59052;SDS011;44843;44.728;10.396;2023-12-29T05:59:04;29.35;;;16.52;;
59052;SDS011;44843;44.728;10.396;2023-12-29T06:01:29;33.25;;;16.30;;
59052;SDS011;44843;44.728;10.396;2023-12-29T06:03:55;28.67;;;16.40;;
59052;SDS011;44843;44.728;10.396;2023-12-29T06:06:20;30.30;;;15.75;;
59052;SDS011;44843;44.728;10.396;2023-12-29T06:08:45;27.08;;;15.00;;
59052;SDS011;44843;44.728;10.396;2023-12-29T06:11:14;31.77;;;15.68;;
59052;SDS011;44843;44.728;10.396;2023-12-29T06:13:39;29.65;;;15.27;;
59052;SDS011;44843;44.728;10.396;2023-12-29T06:16:05;30.85;;;16.52;;
59052;SDS011;44843;44.728;10.396;2023-12-29T06:18:30;25.50;;;14.98;;
59052;SDS011;44843;44.728;10.396;2023-12-29T06:20:55;22.23;;;14.15;;
59052;SDS011;44843;44.728;10.396;2023-12-29T06:23:20;29.75;;;15.55;;
59052;SDS011;44843;44.728;10.396;2023-12-29T06:25:46;27.27;;;15.80;;
59052;SDS011;44843;44.728;10.396;2023-12-29T06:28:11;32.20;;;16.40;;
59052;SDS011;44843;44.728;10.396;2023-12-29T06:30:36;32.72;;;15.95;;
59052;SDS011;44843;44.728;10.396;2023-12-29T06:33:01;28.33;;;16.25;;
59052;SDS011;44843;44.728;10.396;2023-12-29T06:35:27;27.55;;;15.73;;
59052;SDS011;44843;44.728;10.396;2023-12-29T06:37:52;28.30;;;15.18;;
59052;SDS011;44843;44.728;10.396;2023-12-29T06:40:17;28.90;;;15.98;;
59052;SDS011;44843;44.728;10.396;2023-12-29T06:42:43;21.63;;;11.98;;
59052;SDS011;44843;44.728;10.396;2023-12-29T06:45:08;26.63;;;14.10;;
59052;SDS011;44843;44.728;10.396;2023-12-29T06:47:33;29.60;;;15.50;;
59052;SDS011;44843;44.728;10.396;2023-12-29T06:49:59;26.05;;;14.35;;
59052;SDS011;44843;44.728;10.396;2023-12-29T06:52:24;19.38;;;11.55;;
59052;SDS011;44843;44.728;10.396;2023-12-29T06:54:50;21.30;;;12.30;;
59052;SDS011;44843;44.728;10.396;2023-12-29T06:57:15;24.08;;;11.00;;
59052;SDS011;44843;44.728;10.396;2023-12-29T06:59:41;23.05;;;12.00;;
59052;SDS011;44843;44.728;10.396;2023-12-29T07:02:07;21.23;;;10.68;;
59052;SDS011;44843;44.728;10.396;2023-12-29T07:04:32;19.10;;;10.20;;
59052;SDS011;44843;44.728;10.396;2023-12-29T07:06:59;17.70;;;10.82;;
59052;SDS011;44843;44.728;10.396;2023-12-29T07:09:25;15.95;;;9.63;;
59052;SDS011;44843;44.728;10.396;2023-12-29T07:11:50;17.58;;;9.38;;
59052;SDS011;44843;44.728;10.396;2023-12-29T07:14:15;17.95;;;9.40;;
59052;SDS011;44843;44.728;10.396;2023-12-29T07:16:42;16.30;;;8.95;;
59052;SDS011;44843;44.728;10.396;2023-12-29T07:19:07;20.25;;;9.55;;
59052;SDS011;44843;44.728;10.396;2023-12-29T07:21:32;17.60;;;9.77;;
59052;SDS011;44843;44.728;10.396;2023-12-29T07:23:57;17.88;;;10.13;;
59052;SDS011;44843;44.728;10.396;2023-12-29T07:26:23;17.80;;;10.25;;
59052;SDS011;44843;44.728;10.396;2023-12-29T07:28:48;15.60;;;9.60;;
59052;SDS011;44843;44.728;10.396;2023-12-29T07:31:19;21.98;;;10.85;;
59052;SDS011;44843;44.728;10.396;2023-12-29T07:33:44;17.88;;;10.52;;
59052;SDS011;44843;44.728;10.396;2023-12-29T07:36:09;20.23;;;11.55;;
59052;SDS011;44843;44.728;10.396;2023-12-29T07:38:34;18.27;;;11.25;;
59052;SDS011;44843;44.728;10.396;2023-12-29T07:41:00;29.23;;;13.35;;
59052;SDS011;44843;44.728;10.396;2023-12-29T07:43:25;33.13;;;16.75;;
59052;SDS011;44843;44.728;10.396;2023-12-29T07:45:51;28.55;;;16.48;;
59052;SDS011;44843;44.728;10.396;2023-12-29T07:48:16;25.65;;;15.05;;
59052;SDS011;44843;44.728;10.396;2023-12-29T07:50:41;33.13;;;18.00;;
59052;SDS011;44843;44.728;10.396;2023-12-29T07:53:06;35.47;;;17.58;;
59052;SDS011;44843;44.728;10.396;2023-12-29T07:55:32;31.85;;;18.70;;
59052;SDS011;44843;44.728;10.396;2023-12-29T07:57:57;35.50;;;19.70;;
59052;SDS011;44843;44.728;10.396;2023-12-29T08:00:22;37.25;;;19.10;;
59052;SDS011;44843;44.728;10.396;2023-12-29T08:02:48;35.08;;;18.55;;
59052;SDS011;44843;44.728;10.396;2023-12-29T08:05:13;38.63;;;17.30;;
59052;SDS011;44843;44.728;10.396;2023-12-29T08:07:40;31.13;;;16.58;;
59052;SDS011;44843;44.728;10.396;2023-12-29T08:10:06;31.88;;;17.00;;
59052;SDS011;44843;44.728;10.396;2023-12-29T08:12:32;29.25;;;16.00;;
59052;SDS011;44843;44.728;10.396;2023-12-29T08:14:59;24.90;;;13.93;;
59052;SDS011;44843;44.728;10.396;2023-12-29T08:17:24;35.67;;;13.93;;
59052;SDS011;44843;44.728;10.396;2023-12-29T08:19:49;36.45;;;17.58;;
59052;SDS011;44843;44.728;10.396;2023-12-29T08:22:14;36.90;;;18.05;;
59052;SDS011;44843;44.728;10.396;2023-12-29T08:24:40;31.50;;;17.73;;
59052;SDS011;44843;44.728;10.396;2023-12-29T08:27:06;41.47;;;19.98;;
59052;SDS011;44843;44.728;10.396;2023-12-29T08:29:31;32.53;;;17.92;;
59052;SDS011;44843;44.728;10.396;2023-12-29T08:31:56;31.55;;;19.45;;
59052;SDS011;44843;44.728;10.396;2023-12-29T08:34:22;38.35;;;20.17;;
59052;SDS011;44843;44.728;10.396;2023-12-29T08:36:47;34.47;;;20.05;;
59052;SDS011;44843;44.728;10.396;2023-12-29T08:39:12;40.42;;;21.80;;
59052;SDS011;44843;44.728;10.396;2023-12-29T08:41:37;39.70;;;21.20;;
59052;SDS011;44843;44.728;10.396;2023-12-29T08:44:03;39.13;;;21.92;;
59052;SDS011;44843;44.728;10.396;2023-12-29T08:46:28;36.00;;;20.42;;
59052;SDS011;44843;44.728;10.396;2023-12-29T08:48:54;36.97;;;20.45;;
59052;SDS011;44843;44.728;10.396;2023-12-29T08:51:19;32.85;;;18.58;;
59052;SDS011;44843;44.728;10.396;2023-12-29T08:53:45;33.80;;;19.70;;
59052;SDS011;44843;44.728;10.396;2023-12-29T08:56:10;32.75;;;19.67;;
59052;SDS011;44843;44.728;10.396;2023-12-29T08:58:35;33.85;;;18.90;;
59052;SDS011;44843;44.728;10.396;2023-12-29T09:01:00;35.38;;;20.83;;
59052;SDS011;44843;44.728;10.396;2023-12-29T09:03:26;36.35;;;19.30;;
59052;SDS011;44843;44.728;10.396;2023-12-29T09:05:51;36.92;;;19.30;;
59052;SDS011;44843;44.728;10.396;2023-12-29T09:08:16;40.25;;;20.13;;
59052;SDS011;44843;44.728;10.396;2023-12-29T09:10:42;34.40;;;18.70;;
59052;SDS011;44843;44.728;10.396;2023-12-29T09:13:07;37.53;;;19.20;;
59052;SDS011;44843;44.728;10.396;2023-12-29T09:15:32;32.47;;;18.90;;
59052;SDS011;44843;44.728;10.396;2023-12-29T09:17:59;35.83;;;19.45;;
59052;SDS011;44843;44.728;10.396;2023-12-29T09:20:24;34.10;;;19.30;;
59052;SDS011;44843;44.728;10.396;2023-12-29T09:22:49;32.53;;;18.90;;
59052;SDS011;44843;44.728;10.396;2023-12-29T09:25:15;36.63;;;19.67;;
59052;SDS011;44843;44.728;10.396;2023-12-29T09:27:40;34.63;;;19.40;;
59052;SDS011;44843;44.728;10.396;2023-12-29T09:30:06;36.30;;;20.50;;
59052;SDS011;44843;44.728;10.396;2023-12-29T09:32:31;33.65;;;19.30;;
59052;SDS011;44843;44.728;10.396;2023-12-29T09:34:56;35.85;;;19.35;;
59052;SDS011;44843;44.728;10.396;2023-12-29T09:37:22;35.30;;;19.02;;
59052;SDS011;44843;44.728;10.396;2023-12-29T09:39:47;31.40;;;19.15;;
59052;SDS011;44843;44.728;10.396;2023-12-29T09:42:14;34.95;;;19.02;;
59052;SDS011;44843;44.728;10.396;2023-12-29T09:44:44;34.70;;;19.40;;
59052;SDS011;44843;44.728;10.396;2023-12-29T09:47:11;35.10;;;20.17;;
59052;SDS011;44843;44.728;10.396;2023-12-29T09:49:38;35.13;;;19.50;;
59052;SDS011;44843;44.728;10.396;2023-12-29T09:52:09;28.85;;;17.27;;
59052;SDS011;44843;44.728;10.396;2023-12-29T09:54:35;32.55;;;18.85;;
59052;SDS011;44843;44.728;10.396;2023-12-29T09:57:02;30.85;;;17.90;;
59052;SDS011;44843;44.728;10.396;2023-12-29T09:59:27;27.58;;;17.05;;
59052;SDS011;44843;44.728;10.396;2023-12-29T10:01:53;29.27;;;18.08;;
59052;SDS011;44843;44.728;10.396;2023-12-29T10:04:19;32.25;;;17.60;;
59052;SDS011;44843;44.728;10.396;2023-12-29T10:06:44;33.13;;;18.35;;
59052;SDS011;44843;44.728;10.396;2023-12-29T10:09:12;28.63;;;17.35;;
59052;SDS011;44843;44.728;10.396;2023-12-29T10:11:37;32.47;;;17.52;;
59052;SDS011;44843;44.728;10.396;2023-12-29T10:14:11;35.85;;;16.85;;
59052;SDS011;44843;44.728;10.396;2023-12-29T10:16:42;27.45;;;16.02;;
59052;SDS011;44843;44.728;10.396;2023-12-29T10:19:27;31.98;;;18.67;;
59052;SDS011;44843;44.728;10.396;2023-12-29T10:21:57;32.78;;;17.27;;
59052;SDS011;44843;44.728;10.396;2023-12-29T10:24:23;32.10;;;18.25;;
59052;SDS011;44843;44.728;10.396;2023-12-29T10:26:49;27.63;;;16.00;;
59052;SDS011;44843;44.728;10.396;2023-12-29T10:29:15;37.40;;;18.23;;
59052;SDS011;44843;44.728;10.396;2023-12-29T10:31:40;26.90;;;16.55;;
59052;SDS011;44843;44.728;10.396;2023-12-29T10:34:22;30.80;;;17.88;;
59052;SDS011;44843;44.728;10.396;2023-12-29T10:36:54;27.92;;;16.33;;
59052;SDS011;44843;44.728;10.396;2023-12-29T10:39:19;26.48;;;16.00;;
59052;SDS011;44843;44.728;10.396;2023-12-29T10:41:44;37.30;;;19.17;;
59052;SDS011;44843;44.728;10.396;2023-12-29T10:44:10;30.40;;;17.85;;
59052;SDS011;44843;44.728;10.396;2023-12-29T10:46:35;35.10;;;18.08;;
59052;SDS011;44843;44.728;10.396;2023-12-29T10:49:07;32.70;;;17.52;;
59052;SDS011;44843;44.728;10.396;2023-12-29T10:51:33;31.10;;;18.43;;
59052;SDS011;44843;44.728;10.396;2023-12-29T10:53:58;29.83;;;17.83;;
59052;SDS011;44843;44.728;10.396;2023-12-29T10:56:23;29.58;;;17.33;;
59052;SDS011;44843;44.728;10.396;2023-12-29T10:59:04;29.88;;;17.00;;
59052;SDS011;44843;44.728;10.396;2023-12-29T11:01:33;28.77;;;16.92;;
59052;SDS011;44843;44.728;10.396;2023-12-29T11:04:00;29.23;;;17.58;;
59052;SDS011;44843;44.728;10.396;2023-12-29T11:06:26;29.00;;;16.88;;
59052;SDS011;44843;44.728;10.396;2023-12-29T11:08:51;31.75;;;18.27;;
59052;SDS011;44843;44.728;10.396;2023-12-29T11:11:17;30.75;;;17.88;;
59052;SDS011;44843;44.728;10.396;2023-12-29T11:13:42;31.80;;;17.27;;
59052;SDS011;44843;44.728;10.396;2023-12-29T11:16:07;31.73;;;16.45;;
59052;SDS011;44843;44.728;10.396;2023-12-29T11:18:33;28.08;;;16.65;;
59052;SDS011;44843;44.728;10.396;2023-12-29T11:20:59;23.77;;;15.55;;
59052;SDS011;44843;44.728;10.396;2023-12-29T11:23:24;27.35;;;16.60;;
59052;SDS011;44843;44.728;10.396;2023-12-29T11:25:49;31.48;;;16.52;;
59052;SDS011;44843;44.728;10.396;2023-12-29T11:28:15;31.45;;;16.75;;
59052;SDS011;44843;44.728;10.396;2023-12-29T11:30:41;33.83;;;18.10;;
59052;SDS011;44843;44.728;10.396;2023-12-29T11:33:14;31.25;;;17.05;;
59052;SDS011;44843;44.728;10.396;2023-12-29T11:35:59;33.55;;;17.83;;
59052;SDS011;44843;44.728;10.396;2023-12-29T11:43:18;31.48;;;16.83;;
59052;SDS011;44843;44.728;10.396;2023-12-29T11:45:44;32.33;;;18.20;;
59052;SDS011;44843;44.728;10.396;2023-12-29T11:48:10;32.63;;;17.08;;
59052;SDS011;44843;44.728;10.396;2023-12-29T11:50:36;31.02;;;17.35;;
59052;SDS011;44843;44.728;10.396;2023-12-29T11:53:03;31.25;;;17.75;;
59052;SDS011;44843;44.728;10.396;2023-12-29T11:55:29;31.55;;;17.60;;
59052;SDS011;44843;44.728;10.396;2023-12-29T11:57:55;31.50;;;18.25;;
59052;SDS011;44843;44.728;10.396;2023-12-29T12:00:31;34.13;;;17.75;;
59052;SDS011;44843;44.728;10.396;2023-12-29T12:03:13;32.15;;;17.83;;
59052;SDS011;44843;44.728;10.396;2023-12-29T12:05:48;29.23;;;18.35;;
59052;SDS011;44843;44.728;10.396;2023-12-29T12:10:54;34.88;;;17.67;;
59052;SDS011;44843;44.728;10.396;2023-12-29T12:16:03;31.63;;;18.45;;
59052;SDS011;44843;44.728;10.396;2023-12-29T12:18:28;32.63;;;17.60;;
59052;SDS011;44843;44.728;10.396;2023-12-29T12:20:55;34.38;;;18.58;;
59052;SDS011;44843;44.728;10.396;2023-12-29T12:23:20;35.03;;;18.33;;
59052;SDS011;44843;44.728;10.396;2023-12-29T12:25:47;32.65;;;18.33;;
59052;SDS011;44843;44.728;10.396;2023-12-29T12:28:14;29.05;;;16.77;;
59052;SDS011;44843;44.728;10.396;2023-12-29T12:30:40;30.40;;;17.40;;
59052;SDS011;44843;44.728;10.396;2023-12-29T12:33:05;26.38;;;16.58;;
59052;SDS011;44843;44.728;10.396;2023-12-29T12:35:31;29.95;;;16.83;;
59052;SDS011;44843;44.728;10.396;2023-12-29T12:40:36;29.67;;;16.30;;
59052;SDS011;44843;44.728;10.396;2023-12-29T12:43:03;31.17;;;17.13;;
59052;SDS011;44843;44.728;10.396;2023-12-29T12:45:28;28.33;;;15.98;;
59052;SDS011;44843;44.728;10.396;2023-12-29T12:48:03;28.33;;;16.83;;
59052;SDS011;44843;44.728;10.396;2023-12-29T12:50:34;26.85;;;15.52;;
59052;SDS011;44843;44.728;10.396;2023-12-29T12:53:00;28.13;;;16.02;;
59052;SDS011;44843;44.728;10.396;2023-12-29T12:55:29;29.33;;;16.52;;
59052;SDS011;44843;44.728;10.396;2023-12-29T12:57:55;32.42;;;17.27;;
59052;SDS011;44843;44.728;10.396;2023-12-29T13:00:22;27.25;;;16.70;;
59052;SDS011;44843;44.728;10.396;2023-12-29T13:02:47;30.40;;;17.33;;
59052;SDS011;44843;44.728;10.396;2023-12-29T13:05:12;32.70;;;17.48;;
59052;SDS011;44843;44.728;10.396;2023-12-29T13:07:37;33.38;;;17.02;;
59052;SDS011;44843;44.728;10.396;2023-12-29T13:10:03;33.80;;;18.05;;
59052;SDS011;44843;44.728;10.396;2023-12-29T13:12:29;31.35;;;17.60;;
59052;SDS011;44843;44.728;10.396;2023-12-29T13:14:54;31.25;;;18.15;;
59052;SDS011;44843;44.728;10.396;2023-12-29T13:17:29;35.88;;;17.63;;
59052;SDS011;44843;44.728;10.396;2023-12-29T13:19:57;28.25;;;17.23;;
59052;SDS011;44843;44.728;10.396;2023-12-29T13:22:23;30.15;;;16.80;;
59052;SDS011;44843;44.728;10.396;2023-12-29T13:24:48;32.30;;;16.80;;
59052;SDS011;44843;44.728;10.396;2023-12-29T13:27:14;32.63;;;18.20;;
59052;SDS011;44843;44.728;10.396;2023-12-29T13:29:40;33.47;;;17.40;;
59052;SDS011;44843;44.728;10.396;2023-12-29T13:39:42;31.52;;;16.45;;
59052;SDS011;44843;44.728;10.396;2023-12-29T13:42:09;27.55;;;16.13;;
59052;SDS011;44843;44.728;10.396;2023-12-29T13:44:35;34.72;;;17.13;;
59052;SDS011;44843;44.728;10.396;2023-12-29T13:47:01;43.35;;;20.00;;
59052;SDS011;44843;44.728;10.396;2023-12-29T13:49:27;35.25;;;19.00;;
59052;SDS011;44843;44.728;10.396;2023-12-29T13:51:52;33.70;;;17.27;;
59052;SDS011;44843;44.728;10.396;2023-12-29T13:54:17;29.73;;;16.73;;
59052;SDS011;44843;44.728;10.396;2023-12-29T13:56:53;53.65;;;22.80;;
59052;SDS011;44843;44.728;10.396;2023-12-29T13:59:18;32.15;;;17.70;;
59052;SDS011;44843;44.728;10.396;2023-12-29T14:01:43;36.00;;;18.63;;
59052;SDS011;44843;44.728;10.396;2023-12-29T14:04:10;32.20;;;17.40;;
59052;SDS011;44843;44.728;10.396;2023-12-29T14:06:43;27.42;;;16.17;;
59052;SDS011;44843;44.728;10.396;2023-12-29T14:09:14;39.67;;;18.42;;
59052;SDS011;44843;44.728;10.396;2023-12-29T14:11:43;34.92;;;18.50;;
59052;SDS011;44843;44.728;10.396;2023-12-29T14:14:08;35.33;;;18.45;;
59052;SDS011;44843;44.728;10.396;2023-12-29T14:16:38;32.92;;;18.95;;
59052;SDS011;44843;44.728;10.396;2023-12-29T14:19:03;33.25;;;18.23;;
59052;SDS011;44843;44.728;10.396;2023-12-29T14:21:29;35.78;;;18.33;;
59052;SDS011;44843;44.728;10.396;2023-12-29T14:26:23;30.25;;;18.08;;
59052;SDS011;44843;44.728;10.396;2023-12-29T14:28:59;34.50;;;18.27;;
59052;SDS011;44843;44.728;10.396;2023-12-29T14:31:24;35.53;;;18.80;;